sensor_id;sensor_type;location;lat;lon;timestamp;temperature;humidity
23769;DHT22;12064;50.890;5.424;2023-02-01T00:06:23;21.10;66.40
23769;DHT22;12064;50.890;5.424;2023-02-01T00:15:14;22.00;63.40
23769;DHT22;12064;50.890;5.424;2023-02-01T00:24:18;22.40;62.00
23769;DHT22;12064;50.890;5.424;2023-02-01T00:33:09;22.10;62.10
23769;DHT22;12064;50.890;5.424;2023-02-01T00:42:03;22.10;62.40
23769;DHT22;12064;50.890;5.424;2023-02-01T00:50:53;22.10;62.40
23769;DHT22;12064;50.890;5.424;2023-02-01T00:59:47;22.10;62.20
23769;DHT22;12064;50.890;5.424;2023-02-01T01:08:38;21.60;63.50
23769;DHT22;12064;50.890;5.424;2023-02-01T01:17:31;21.80;62.70
23769;DHT22;12064;50.890;5.424;2023-02-01T01:26:27;20.90;65.00
23769;DHT22;12064;50.890;5.424;2023-02-01T01:35:31;19.90;68.20
23769;DHT22;12064;50.890;5.424;2023-02-01T01:44:57;19.80;69.10
23769;DHT22;12064;50.890;5.424;2023-02-01T01:54:02;19.80;68.80
23769;DHT22;12064;50.890;5.424;2023-02-01T02:03:00;20.50;66.50
23769;DHT22;12064;50.890;5.424;2023-02-01T02:11:53;21.20;64.40
23769;DHT22;12064;50.890;5.424;2023-02-01T02:57:00;21.20;63.70
23769;DHT22;12064;50.890;5.424;2023-02-01T03:06:16;21.70;62.20
23769;DHT22;12064;50.890;5.424;2023-02-01T03:15:10;20.90;64.00
23769;DHT22;12064;50.890;5.424;2023-02-01T03:33:32;19.40;69.20
23769;DHT22;12064;50.890;5.424;2023-02-01T03:42:49;19.40;69.10
23769;DHT22;12064;50.890;5.424;2023-02-01T03:51:44;19.60;68.70
23769;DHT22;12064;50.890;5.424;2023-02-01T04:00:38;20.20;66.50
23769;DHT22;12064;50.890;5.424;2023-02-01T04:09:29;21.10;64.00
23769;DHT22;12064;50.890;5.424;2023-02-01T04:18:23;21.20;63.20
23769;DHT22;12064;50.890;5.424;2023-02-01T04:27:17;21.30;63.10
23769;DHT22;12064;50.890;5.424;2023-02-01T04:36:09;20.90;63.80
23769;DHT22;12064;50.890;5.424;2023-02-01T04:44:59;20.00;66.80
23769;DHT22;12064;50.890;5.424;2023-02-01T04:53:50;19.90;67.90
23769;DHT22;12064;50.890;5.424;2023-02-01T05:02:46;20.20;67.00
23769;DHT22;12064;50.890;5.424;2023-02-01T05:11:39;20.60;66.40
23769;DHT22;12064;50.890;5.424;2023-02-01T05:20:48;20.80;65.90
23769;DHT22;12064;50.890;5.424;2023-02-01T05:29:38;20.80;66.20
23769;DHT22;12064;50.890;5.424;2023-02-01T05:38:29;20.80;66.30
23769;DHT22;12064;50.890;5.424;2023-02-01T05:47:20;21.10;65.60
23769;DHT22;12064;50.890;5.424;2023-02-01T05:56:11;21.10;66.40
23769;DHT22;12064;50.890;5.424;2023-02-01T06:05:01;21.00;66.10
23769;DHT22;12064;50.890;5.424;2023-02-01T06:13:55;20.80;66.50
23769;DHT22;12064;50.890;5.424;2023-02-01T06:32:24;20.40;67.40
23769;DHT22;12064;50.890;5.424;2023-02-01T06:41:18;20.30;67.40
23769;DHT22;12064;50.890;5.424;2023-02-01T06:50:11;20.10;68.10
23769;DHT22;12064;50.890;5.424;2023-02-01T06:59:06;19.90;68.60
23769;DHT22;12064;50.890;5.424;2023-02-01T07:07:57;19.80;68.70
23769;DHT22;12064;50.890;5.424;2023-02-01T07:16:48;19.70;68.90
23769;DHT22;12064;50.890;5.424;2023-02-01T07:25:38;19.60;69.00
23769;DHT22;12064;50.890;5.424;2023-02-01T07:34:29;19.60;68.70
23769;DHT22;12064;50.890;5.424;2023-02-01T07:43:21;19.80;68.10
23769;DHT22;12064;50.890;5.424;2023-02-01T07:52:13;19.70;68.10
23769;DHT22;12064;50.890;5.424;2023-02-01T08:01:10;19.70;68.30
23769;DHT22;12064;50.890;5.424;2023-02-01T08:10:11;19.60;68.70
23769;DHT22;12064;50.890;5.424;2023-02-01T08:19:01;19.50;68.80
23769;DHT22;12064;50.890;5.424;2023-02-01T08:27:52;19.40;68.90
23769;DHT22;12064;50.890;5.424;2023-02-01T08:36:44;19.40;69.70
23769;DHT22;12064;50.890;5.424;2023-02-01T08:45:35;19.50;68.40
23769;DHT22;12064;50.890;5.424;2023-02-01T08:54:26;19.50;68.50
23769;DHT22;12064;50.890;5.424;2023-02-01T09:03:16;19.60;68.40
23769;DHT22;12064;50.890;5.424;2023-02-01T09:12:10;19.60;68.50
23769;DHT22;12064;50.890;5.424;2023-02-01T09:21:06;19.50;68.60
23769;DHT22;12064;50.890;5.424;2023-02-01T09:29:57;19.40;68.90
23769;DHT22;12064;50.890;5.424;2023-02-01T09:38:47;19.30;69.10
23769;DHT22;12064;50.890;5.424;2023-02-01T09:47:51;19.30;69.00
23769;DHT22;12064;50.890;5.424;2023-02-01T09:57:07;19.60;68.30
23769;DHT22;12064;50.890;5.424;2023-02-01T10:06:08;19.40;68.40
23769;DHT22;12064;50.890;5.424;2023-02-01T10:24:25;19.40;68.70
23769;DHT22;12064;50.890;5.424;2023-02-01T10:33:30;19.40;68.80
23769;DHT22;12064;50.890;5.424;2023-02-01T10:42:26;19.30;69.00
23769;DHT22;12064;50.890;5.424;2023-02-01T10:51:57;19.30;69.10
23769;DHT22;12064;50.890;5.424;2023-02-01T11:00:56;19.40;68.70
23769;DHT22;12064;50.890;5.424;2023-02-01T11:09:51;19.60;67.70
23769;DHT22;12064;50.890;5.424;2023-02-01T11:18:42;19.60;67.60
23769;DHT22;12064;50.890;5.424;2023-02-01T11:27:33;19.50;68.30
23769;DHT22;12064;50.890;5.424;2023-02-01T11:36:30;19.40;68.70
23769;DHT22;12064;50.890;5.424;2023-02-01T11:45:30;19.30;68.80
23769;DHT22;12064;50.890;5.424;2023-02-01T12:04:26;19.30;69.00
23769;DHT22;12064;50.890;5.424;2023-02-01T12:31:55;19.70;67.10
23769;DHT22;12064;50.890;5.424;2023-02-01T12:58:55;19.70;66.50
23769;DHT22;12064;50.890;5.424;2023-02-01T13:16:53;19.20;69.00
23769;DHT22;12064;50.890;5.424;2023-02-01T13:25:49;19.10;69.10
23769;DHT22;12064;50.890;5.424;2023-02-01T13:43:49;19.40;68.10
23769;DHT22;12064;50.890;5.424;2023-02-01T13:52:43;19.80;66.70
23769;DHT22;12064;50.890;5.424;2023-02-01T14:01:35;20.40;65.00
23769;DHT22;12064;50.890;5.424;2023-02-01T14:19:35;20.30;64.70
23769;DHT22;12064;50.890;5.424;2023-02-01T14:28:28;19.40;67.80
23769;DHT22;12064;50.890;5.424;2023-02-01T14:46:14;19.20;68.70
23769;DHT22;12064;50.890;5.424;2023-02-01T14:55:16;19.10;68.70
23769;DHT22;12064;50.890;5.424;2023-02-01T15:04:15;19.20;68.70
23769;DHT22;12064;50.890;5.424;2023-02-01T15:13:18;19.70;67.00
23769;DHT22;12064;50.890;5.424;2023-02-01T15:22:18;20.20;65.00
23769;DHT22;12064;50.890;5.424;2023-02-01T15:31:09;20.50;64.10
23769;DHT22;12064;50.890;5.424;2023-02-01T15:49:00;21.00;62.50
23769;DHT22;12064;50.890;5.424;2023-02-01T15:57:50;20.30;64.80
23769;DHT22;12064;50.890;5.424;2023-02-01T16:15:39;19.10;68.40
23769;DHT22;12064;50.890;5.424;2023-02-01T16:24:30;19.10;68.50
23769;DHT22;12064;50.890;5.424;2023-02-01T16:33:23;19.20;68.30
23769;DHT22;12064;50.890;5.424;2023-02-01T16:42:16;19.40;67.60
23769;DHT22;12064;50.890;5.424;2023-02-01T16:51:13;19.90;66.10
23769;DHT22;12064;50.890;5.424;2023-02-01T17:00:04;20.50;64.10
23769;DHT22;12064;50.890;5.424;2023-02-01T17:08:56;20.10;65.30
23769;DHT22;12064;50.890;5.424;2023-02-01T17:17:50;20.10;66.20
23769;DHT22;12064;50.890;5.424;2023-02-01T17:26:44;20.20;66.60
23769;DHT22;12064;50.890;5.424;2023-02-01T17:35:35;21.00;64.80
23769;DHT22;12064;50.890;5.424;2023-02-01T17:44:28;22.00;61.70
23769;DHT22;12064;50.890;5.424;2023-02-01T17:53:21;22.10;61.10
23769;DHT22;12064;50.890;5.424;2023-02-01T18:02:18;21.30;62.60
23769;DHT22;12064;50.890;5.424;2023-02-01T18:11:16;20.30;66.50
23769;DHT22;12064;50.890;5.424;2023-02-01T18:20:15;20.10;67.00
23769;DHT22;12064;50.890;5.424;2023-02-01T18:29:06;20.10;67.10
23769;DHT22;12064;50.890;5.424;2023-02-01T18:37:57;20.00;67.10
23769;DHT22;12064;50.890;5.424;2023-02-01T18:47:00;20.10;67.20
23769;DHT22;12064;50.890;5.424;2023-02-01T18:55:50;20.10;67.10
23769;DHT22;12064;50.890;5.424;2023-02-01T19:04:41;20.60;66.20
23769;DHT22;12064;50.890;5.424;2023-02-01T19:13:32;20.60;67.10
23769;DHT22;12064;50.890;5.424;2023-02-01T19:22:23;21.10;66.20
23769;DHT22;12064;50.890;5.424;2023-02-01T19:31:15;22.00;63.80
23769;DHT22;12064;50.890;5.424;2023-02-01T19:40:10;22.90;62.40
23769;DHT22;12064;50.890;5.424;2023-02-01T19:49:04;22.90;62.00
23769;DHT22;12064;50.890;5.424;2023-02-01T19:57:57;23.40;61.10
23769;DHT22;12064;50.890;5.424;2023-02-01T20:06:48;23.50;61.20
23769;DHT22;12064;50.890;5.424;2023-02-01T20:15:39;23.40;62.40
23769;DHT22;12064;50.890;5.424;2023-02-01T20:24:33;23.60;61.50
23769;DHT22;12064;50.890;5.424;2023-02-01T20:33:24;23.60;61.60
23769;DHT22;12064;50.890;5.424;2023-02-01T20:42:18;23.60;60.90
23769;DHT22;12064;50.890;5.424;2023-02-01T20:51:15;23.60;62.00
23769;DHT22;12064;50.890;5.424;2023-02-01T21:00:28;23.70;61.10
23769;DHT22;12064;50.890;5.424;2023-02-01T21:09:20;23.80;61.00
23769;DHT22;12064;50.890;5.424;2023-02-01T21:18:11;23.80;61.60
23769;DHT22;12064;50.890;5.424;2023-02-01T21:27:03;23.80;61.70
23769;DHT22;12064;50.890;5.424;2023-02-01T21:35:54;23.90;61.10
23769;DHT22;12064;50.890;5.424;2023-02-01T21:45:22;23.60;61.00
23769;DHT22;12064;50.890;5.424;2023-02-01T21:54:15;23.70;61.00
23769;DHT22;12064;50.890;5.424;2023-02-01T22:03:06;23.50;60.90
23769;DHT22;12064;50.890;5.424;2023-02-01T22:12:00;23.30;61.20
23769;DHT22;12064;50.890;5.424;2023-02-01T22:20:58;23.10;61.20
23769;DHT22;12064;50.890;5.424;2023-02-01T22:29:48;22.90;61.50
23769;DHT22;12064;50.890;5.424;2023-02-01T22:38:39;22.70;61.80
23769;DHT22;12064;50.890;5.424;2023-02-01T22:47:30;22.60;62.00
23769;DHT22;12064;50.890;5.424;2023-02-01T22:56:20;22.50;62.10
23769;DHT22;12064;50.890;5.424;2023-02-01T23:05:11;22.40;62.00
23769;DHT22;12064;50.890;5.424;2023-02-01T23:14:05;22.30;62.10
23769;DHT22;12064;50.890;5.424;2023-02-01T23:22:56;22.20;62.10
23769;DHT22;12064;50.890;5.424;2023-02-01T23:31:46;22.20;62.40
23769;DHT22;12064;50.890;5.424;2023-02-01T23:40:39;22.10;62.20
23769;DHT22;12064;50.890;5.424;2023-02-01T23:49:30;22.00;62.00
23769;DHT22;12064;50.890;5.424;2023-02-01T23:58:21;21.90;62.00
